Time;durP1;ratioP1;P1;durP2;ratioP2;P2;SDS_P1;SDS_P2;PMS_P1;PMS_P2;Temp;Humidity;BMP_temperature;BMP_pressure;BME280_temperature;BME280_humidity;BME280_pressure;Samples;Min_cycle;Max_cycle;Signal;HPM_P1;HPM_P2
2024/04/07 14:36:12;;;;;;;;;2.00;0.33;;;;;24.27;40.50;101093.03;5833103;23;47326;-74
2024/04/07 14:38:37;;;;;;;;;0.00;0.00;;;;;24.29;40.42;101099.78;4926227;28;45504;-73
2024/04/07 14:41:04;;;;;;;;;0.00;0.00;;;;;24.38;40.12;101115.63;4932958;28;46677;-73
2024/04/07 14:43:29;;;;;;;;;1.00;1.00;;;;;24.37;40.67;101108.66;4937245;28;45350;-75
2024/04/07 14:45:56;;;;;;;;;0.00;0.00;;;;;24.37;40.34;101101.50;4937751;28;45493;-74
2024/04/07 14:48:21;;;;;;;;;0.00;0.00;;;;;24.37;40.55;101111.31;4937317;28;45564;-74
2024/04/07 14:50:47;;;;;;;;;0.00;0.00;;;;;24.25;40.60;101085.19;4937818;28;46060;-78
2024/04/07 14:53:13;;;;;;;;;0.00;0.00;;;;;24.29;40.75;101083.00;4936631;28;45505;-81
2024/04/07 14:55:40;;;;;;;;;0.33;0.33;;;;;24.38;40.65;101097.00;4936453;28;45360;-76
2024/04/07 14:58:05;;;;;;;;;3.00;0.67;;;;;24.39;41.09;101091.50;4937470;28;45398;-75
2024/04/07 15:00:32;;;;;;;;;0.00;0.00;;;;;24.40;40.98;101097.66;4938849;28;47210;-79
2024/04/07 15:02:58;;;;;;;;;0.00;0.00;;;;;24.40;40.82;101095.81;4936076;28;45445;-80
2024/04/07 15:05:24;;;;;;;;;1.00;1.00;;;;;24.10;40.89;101048.03;4937149;28;45585;-82
2024/04/07 15:07:49;;;;;;;;;1.00;1.00;;;;;24.40;40.91;101082.53;4937147;28;45613;-78
2024/04/07 15:10:15;;;;;;;;;0.67;0.67;;;;;24.18;40.99;101036.44;4933891;28;46396;-78
2024/04/07 15:12:40;;;;;;;;;0.00;0.00;;;;;24.37;40.49;101074.09;4937504;28;45343;-78
2024/04/07 15:15:06;;;;;;;;;1.00;0.00;;;;;24.42;41.15;101079.66;4936788;28;45483;-80
2024/04/07 15:17:31;;;;;;;;;0.00;0.00;;;;;24.28;40.95;101060.09;4940746;28;45341;-78
2024/04/07 15:19:56;;;;;;;;;1.00;0.00;;;;;24.35;41.25;101070.81;4936685;28;47364;-78
2024/04/07 15:22:22;;;;;;;;;0.00;0.00;;;;;24.42;40.93;101092.94;4936714;28;45542;-78
2024/04/07 15:24:52;;;;;;;;;2.00;0.00;;;;;24.46;40.84;101086.22;4937009;28;45371;-80
2024/04/07 15:27:17;;;;;;;;;0.67;0.33;;;;;24.46;40.88;101090.75;4937137;28;45605;-77
2024/04/07 15:29:42;;;;;;;;;0.00;0.00;;;;;24.14;41.21;101038.69;4935952;28;46136;-77
2024/04/07 15:32:09;;;;;;;;;0.00;0.00;;;;;24.46;41.55;101080.09;4937127;28;45378;-78
2024/04/07 15:34:34;;;;;;;;;0.00;0.00;;;;;24.47;41.13;101079.91;4936268;28;45507;-77
2024/04/07 15:37:00;;;;;;;;;1.33;0.33;;;;;24.49;41.27;101069.06;4936922;28;45480;-77
2024/04/07 15:39:26;;;;;;;;;0.00;0.00;;;;;24.47;41.24;101058.63;4936000;28;45408;-75
2024/04/07 15:41:52;;;;;;;;;0.00;0.00;;;;;24.48;41.11;101062.94;4936555;28;45465;-78
2024/04/07 15:44:18;;;;;;;;;0.00;0.00;;;;;24.36;41.25;101051.97;4936587;28;45700;-79
2024/04/07 15:46:43;;;;;;;;;1.33;0.33;;;;;24.42;41.42;101060.22;4936791;28;45414;-81
2024/04/07 15:49:08;;;;;;;;;0.00;0.00;;;;;24.42;41.50;101054.88;4936011;28;45487;-75
2024/04/07 15:51:34;;;;;;;;;0.00;0.00;;;;;24.44;41.15;101058.19;4936523;28;45396;-80
2024/04/07 15:54:00;;;;;;;;;1.00;1.00;;;;;24.50;41.18;101082.19;4936586;28;45343;-80
2024/04/07 15:56:25;;;;;;;;;0.00;0.00;;;;;24.22;41.45;101032.41;4936553;28;45459;-75
2024/04/07 15:58:51;;;;;;;;;0.33;0.33;;;;;24.35;41.41;101053.00;4936238;28;46392;-83
2024/04/07 16:01:21;;;;;;;;;0.00;0.00;;;;;24.51;41.66;101088.34;4936786;28;45597;-83
2024/04/07 16:03:46;;;;;;;;;0.00;0.00;;;;;24.26;41.60;101040.81;4937357;28;45303;-84
2024/04/07 16:06:12;;;;;;;;;2.67;0.00;;;;;24.52;41.58;101074.84;4937260;28;45275;-77
2024/04/07 16:08:37;;;;;;;;;0.00;0.00;;;;;24.49;41.15;101055.75;4936429;28;46092;-79
2024/04/07 16:11:02;;;;;;;;;0.00;0.00;;;;;24.55;41.37;101059.50;4935996;28;45461;-80
2024/04/07 16:13:28;;;;;;;;;0.00;0.00;;;;;24.42;41.64;101046.91;4938180;28;45532;-78
2024/04/07 16:15:53;;;;;;;;;1.00;0.00;;;;;24.51;41.81;101059.88;4947899;28;45529;-79
2024/04/07 16:18:18;;;;;;;;;0.00;0.00;;;;;24.40;41.75;101055.09;4935676;28;46239;-80
2024/04/07 16:20:44;;;;;;;;;1.33;0.00;;;;;24.39;41.85;101054.25;4936303;28;45493;-81
2024/04/07 16:23:12;;;;;;;;;2.00;0.00;;;;;24.33;41.85;101038.25;4936596;28;45481;-78
2024/04/07 16:25:37;;;;;;;;;0.00;0.00;;;;;24.59;42.07;101084.72;4936220;28;45471;-78
2024/04/07 16:28:03;;;;;;;;;1.33;0.00;;;;;24.61;42.30;101074.72;4936195;28;45485;-75
2024/04/07 16:30:30;;;;;;;;;0.00;0.00;;;;;24.63;42.34;101067.34;4936005;28;45351;-79
2024/04/07 16:32:55;;;;;;;;;0.00;0.00;;;;;24.56;42.38;101047.84;4948307;28;45497;-77
2024/04/07 16:35:21;;;;;;;;;0.00;0.00;;;;;24.67;42.41;101060.63;4934863;28;45452;-78
2024/04/07 16:37:46;;;;;;;;;0.00;0.00;;;;;24.68;42.45;101078.22;4934758;28;46891;-74
2024/04/07 16:40:15;;;;;;;;;0.00;0.00;;;;;24.55;42.55;101051.53;4935372;28;45401;-75
2024/04/07 16:42:41;;;;;;;;;0.00;0.00;;;;;24.71;42.63;101074.38;4938207;28;45642;-78
2024/04/07 16:45:06;;;;;;;;;0.33;0.00;;;;;24.71;42.52;101083.19;4938349;28;45449;-81
2024/04/07 16:47:31;;;;;;;;;2.33;0.00;;;;;24.59;42.38;101080.19;4953836;28;46236;-82
2024/04/07 16:49:57;;;;;;;;;0.00;0.00;;;;;24.73;41.98;101096.28;4938627;28;45298;-75
2024/04/07 16:52:22;;;;;;;;;0.00;0.00;;;;;24.60;42.42;101070.38;4940464;28;45470;-90
2024/04/07 16:54:48;;;;;;;;;0.67;0.00;;;;;24.72;42.50;101081.34;4940023;28;45465;-84
2024/04/07 16:57:13;;;;;;;;;0.00;0.00;;;;;24.71;42.19;101079.69;4941433;28;47206;-82
2024/04/07 16:59:40;;;;;;;;;0.67;0.00;;;;;24.66;42.13;101066.97;4941824;28;45407;-87
2024/04/07 17:02:05;;;;;;;;;0.00;0.00;;;;;24.65;41.84;101078.63;4953044;28;45339;-82
2024/04/07 17:04:31;;;;;;;;;0.00;0.00;;;;;24.62;42.04;101079.81;4939912;28;45300;-88
2024/04/07 17:06:56;;;;;;;;;0.67;0.00;;;;;24.48;41.85;101059.47;4939762;28;45389;-82
2024/04/07 17:09:21;;;;;;;;;0.00;0.00;;;;;24.69;42.16;101092.38;4939619;28;45387;-87
2024/04/07 17:11:47;;;;;;;;;1.00;0.00;;;;;24.46;42.10;101061.50;4940994;28;45353;-88
2024/04/07 17:14:13;;;;;;;;;1.00;0.00;;;;;24.51;41.99;101059.06;4940864;28;45284;-81
2024/04/07 17:16:39;;;;;;;;;0.00;0.00;;;;;24.66;42.03;101072.28;4945531;28;46142;-81
2024/04/07 17:19:05;;;;;;;;;0.00;0.00;;;;;24.44;42.08;101040.38;4946390;28;45425;-89
2024/04/07 17:21:30;;;;;;;;;0.33;0.00;;;;;24.50;41.88;101057.41;4939815;28;45382;-83
2024/04/07 17:23:56;;;;;;;;;0.00;0.00;;;;;24.46;42.10;101048.19;4939470;28;45331;-87
2024/04/07 17:26:21;;;;;;;;;0.00;0.00;;;;;24.64;42.03;101082.31;4951848;28;46016;-82
2024/04/07 17:28:47;;;;;;;;;2.67;0.00;;;;;24.65;42.33;101085.75;4938722;28;45435;-79
2024/04/07 17:31:12;;;;;;;;;0.00;0.00;;;;;24.65;42.07;101093.75;4939260;28;45415;-78
2024/04/07 17:33:38;;;;;;;;;0.00;0.00;;;;;24.49;42.72;101074.38;4939236;28;45385;-79
2024/04/07 17:36:06;;;;;;;;;0.00;0.00;;;;;24.59;42.51;101082.84;4938970;28;47330;-80
2024/04/07 17:38:32;;;;;;;;;0.00;0.00;;;;;24.47;42.35;101063.13;4940584;28;45421;-77
2024/04/07 17:40:58;;;;;;;;;0.00;0.00;;;;;24.66;42.63;101090.91;4938589;28;45437;-80
2024/04/07 17:43:24;;;;;;;;;1.67;0.00;;;;;24.66;42.23;101096.22;4938992;28;45417;-81
2024/04/07 17:45:49;;;;;;;;;2.00;1.00;;;;;24.31;42.30;101030.47;4938768;28;46150;-87
2024/04/07 17:48:14;;;;;;;;;2.00;0.00;;;;;24.48;42.39;101054.97;4925650;28;45497;-77
2024/04/07 17:50:40;;;;;;;;;0.00;0.00;;;;;24.67;42.42;101078.44;4938753;28;45295;-77
2024/04/07 17:53:05;;;;;;;;;0.33;0.00;;;;;24.66;42.31;101085.59;4938524;28;45516;-79
2024/04/07 17:55:30;;;;;;;;;2.67;1.00;;;;;24.65;42.54;101075.13;4938419;28;45370;-74
2024/04/07 17:57:56;;;;;;;;;0.00;0.00;;;;;24.60;42.25;101075.72;4937856;28;45363;-82
2024/04/07 18:00:21;;;;;;;;;0.67;0.67;;;;;24.50;42.54;101054.75;4938392;28;45335;-79
2024/04/07 18:02:46;;;;;;;;;2.67;0.67;;;;;24.63;42.46;101078.00;4938064;28;45302;-79
2024/04/07 18:05:12;;;;;;;;;2.33;0.00;;;;;24.52;42.32;101061.53;4938355;28;47056;-78
2024/04/07 18:07:37;;;;;;;;;0.00;0.00;;;;;24.58;42.26;101070.59;4937922;28;45383;-78
2024/04/07 18:10:03;;;;;;;;;0.00;0.00;;;;;24.60;42.65;101068.56;4938313;28;45382;-78
2024/04/07 18:12:28;;;;;;;;;1.67;1.00;;;;;24.63;42.66;101070.84;4952995;28;45438;-78
2024/04/07 18:14:54;;;;;;;;;2.33;0.00;;;;;24.51;42.65;101057.22;4938146;28;45296;-77
2024/04/07 18:17:19;;;;;;;;;0.00;0.00;;;;;24.62;42.83;101084.31;4938132;28;45391;-78
2024/04/07 18:19:46;;;;;;;;;3.00;1.00;;;;;24.50;42.65;101060.09;4938194;28;45399;-78
2024/04/07 18:22:12;;;;;;;;;0.33;0.33;;;;;24.31;43.10;101035.78;4937120;28;45445;-76
2024/04/07 18:24:37;;;;;;;;;1.00;1.00;;;;;24.63;43.11;101076.16;4953107;28;46384;-77
2024/04/07 18:27:03;;;;;;;;;0.00;0.00;;;;;24.63;42.46;101078.00;4937890;28;45556;-78
2024/04/07 18:29:30;;;;;;;;;3.00;1.00;;;;;24.49;42.31;101048.63;4938458;28;45286;-78
2024/04/07 18:31:56;;;;;;;;;1.33;1.33;;;;;24.62;42.90;101063.03;4937678;28;46220;-78
2024/04/07 18:34:21;;;;;;;;;0.33;0.00;;;;;24.52;42.73;101045.56;4938177;28;45334;-76
2024/04/07 18:36:46;;;;;;;;;2.00;0.00;;;;;24.61;42.64;101066.72;4938210;28;45437;-78
2024/04/07 18:39:12;;;;;;;;;2.00;1.00;;;;;24.64;43.18;101074.31;4938144;28;45409;-74
2024/04/07 18:41:37;;;;;;;;;2.33;2.00;;;;;24.52;43.30;101058.88;4937937;28;45474;-75
2024/04/07 18:44:04;;;;;;;;;2.00;1.00;;;;;24.38;43.55;101035.84;4938166;28;45678;-75
2024/04/07 18:46:29;;;;;;;;;1.00;1.00;;;;;24.28;43.63;101013.06;4937463;28;45548;-74
2024/04/07 18:48:55;;;;;;;;;1.00;1.00;;;;;24.48;43.55;101040.84;4938159;28;45502;-74
2024/04/07 18:51:20;;;;;;;;;3.00;1.67;;;;;24.61;43.78;101066.72;4937851;28;45560;-75
2024/04/07 18:53:48;;;;;;;;;1.67;1.67;;;;;24.42;43.74;101045.09;4937976;28;46745;-76
2024/04/07 18:56:14;;;;;;;;;2.33;1.00;;;;;24.71;43.88;101079.69;4937441;28;45443;-75
2024/04/07 18:58:39;;;;;;;;;0.67;0.33;;;;;24.47;44.09;101044.50;4938032;28;45294;-75
2024/04/07 19:01:05;;;;;;;;;2.33;1.00;;;;;24.69;44.02;101077.22;4936878;28;45404;-74
2024/04/07 19:03:31;;;;;;;;;3.00;1.67;;;;;24.75;44.17;101075.63;4935566;28;46111;-77
2024/04/07 19:05:56;;;;;;;;;2.00;0.67;;;;;24.76;44.22;101076.44;4948799;28;45542;-75
2024/04/07 19:08:22;;;;;;;;;0.00;0.00;;;;;24.71;44.07;101067.22;4930058;28;45311;-80
2024/04/07 19:10:58;;;;;;;;;2.00;1.00;;;;;24.69;44.09;101057.78;4937717;28;45611;-84
2024/04/07 19:13:24;;;;;;;;;2.00;1.00;;;;;24.45;42.77;101027.91;4937480;28;47098;-82
2024/04/07 19:16:03;;;;;;;;;0.00;0.00;;;;;24.50;42.63;101036.16;4937037;28;45548;-81
2024/04/07 19:18:29;;;;;;;;;3.67;2.33;;;;;24.48;41.99;101041.66;4937274;28;45315;-80
2024/04/07 19:21:02;;;;;;;;;0.67;0.67;;;;;24.61;41.68;101058.75;4937952;28;45497;-79
2024/04/07 19:23:28;;;;;;;;;2.33;0.67;;;;;24.53;41.52;101059.69;4937162;28;46670;-80
2024/04/07 19:25:59;;;;;;;;;0.67;0.67;;;;;24.57;41.72;101071.59;4937242;28;45358;-79
2024/04/07 19:28:26;;;;;;;;;2.00;1.67;;;;;24.22;41.25;101021.78;4950165;28;45364;-80
2024/04/07 19:30:52;;;;;;;;;1.00;1.00;;;;;24.50;41.14;101071.56;4936894;28;45459;-80
2024/04/07 19:33:18;;;;;;;;;1.33;0.67;;;;;24.30;41.13;101052.75;4936887;28;46894;-79
2024/04/07 19:35:43;;;;;;;;;0.67;0.67;;;;;24.13;40.64;101021.06;4937537;28;45493;-79
2024/04/07 19:38:10;;;;;;;;;0.67;0.67;;;;;23.73;40.77;100963.88;4948940;28;45397;-80
2024/04/07 19:40:35;;;;;;;;;0.33;0.33;;;;;24.16;40.64;101031.34;4936944;28;45404;-80
2024/04/07 19:43:00;;;;;;;;;1.67;1.33;;;;;24.05;40.53;101014.06;4936873;28;45552;-80
2024/04/07 19:45:26;;;;;;;;;0.00;0.00;;;;;24.21;40.25;101041.41;4935590;28;45496;-79
2024/04/07 19:47:51;;;;;;;;;2.00;1.33;;;;;24.00;41.05;101012.97;4937212;28;45299;-81
2024/04/07 19:50:16;;;;;;;;;1.00;1.00;;;;;24.23;40.23;101052.66;4937433;28;45355;-79
2024/04/07 19:52:42;;;;;;;;;0.50;0.50;;;;;24.08;40.77;101028.81;4939944;28;45608;-82
2024/04/07 19:55:07;;;;;;;;;2.00;0.67;;;;;24.24;40.94;101056.97;4946870;28;45480;-82
2024/04/07 19:57:33;;;;;;;;;3.33;0.33;;;;;24.03;41.08;101020.56;4937245;28;45748;-79
2024/04/07 19:59:58;;;;;;;;;1.00;1.00;;;;;24.26;40.96;101046.13;4936831;28;45413;-78
2024/04/07 20:02:23;;;;;;;;;0.67;0.67;;;;;24.18;41.33;101026.66;4936670;28;46988;-79
2024/04/07 20:04:50;;;;;;;;;2.00;1.00;;;;;23.97;40.78;100995.56;4937097;28;45339;-76
2024/04/07 20:07:16;;;;;;;;;1.00;0.67;;;;;24.27;41.15;101035.34;4936865;28;45489;-76
2024/04/07 20:09:43;;;;;;;;;0.00;0.00;;;;;24.28;41.14;101044.13;4936784;28;45478;-74
2024/04/07 20:12:08;;;;;;;;;0.33;0.00;;;;;24.11;41.21;101009.81;4936148;28;46082;-75
2024/04/07 20:14:34;;;;;;;;;0.67;0.67;;;;;24.06;41.50;100999.75;4937509;28;45390;-74
2024/04/07 20:16:59;;;;;;;;;1.00;1.00;;;;;24.18;41.72;101015.19;4939947;28;45481;-75
2024/04/07 20:19:25;;;;;;;;;2.00;1.00;;;;;24.26;41.73;101015.09;4938621;28;45489;-74
2024/04/07 20:21:50;;;;;;;;;0.00;0.00;;;;;24.33;41.71;101017.00;4939588;28;46332;-75
2024/04/07 20:24:16;;;;;;;;;2.00;1.00;;;;;24.27;41.88;100997.31;4940018;28;45382;-74
2024/04/07 20:26:41;;;;;;;;;3.00;0.00;;;;;24.35;42.01;101010.47;4938131;28;45467;-75
2024/04/07 20:29:06;;;;;;;;;0.33;0.00;;;;;24.36;41.62;101020.06;4940023;28;45473;-75
2024/04/07 20:31:32;;;;;;;;;0.00;0.00;;;;;24.36;41.64;101020.06;4939656;28;46119;-75
2024/04/07 20:33:57;;;;;;;;;0.33;0.33;;;;;24.29;41.69;101014.72;4938572;28;46030;-74
2024/04/07 20:36:22;;;;;;;;;0.00;0.00;;;;;24.36;41.53;101025.41;4939230;28;45469;-75
2024/04/07 20:38:48;;;;;;;;;0.67;0.67;;;;;24.36;41.48;101025.41;4939813;28;45386;-75
2024/04/07 20:41:14;;;;;;;;;1.00;1.00;;;;;24.32;41.38;101025.97;4939205;28;45499;-81
2024/04/07 20:43:39;;;;;;;;;0.67;0.67;;;;;24.28;41.36;101018.38;4939767;28;45279;-81
2024/04/07 20:46:05;;;;;;;;;2.33;0.00;;;;;24.34;41.62;101029.25;4942150;28;45417;-84
2024/04/07 20:48:30;;;;;;;;;0.67;0.67;;;;;24.25;41.31;101024.03;4950525;28;45466;-83
2024/04/07 20:50:56;;;;;;;;;1.67;0.00;;;;;24.17;41.27;101002.94;4939594;28;46260;-81
2024/04/07 20:53:21;;;;;;;;;0.00;0.00;;;;;24.16;41.12;101007.41;4939947;28;45365;-79
2024/04/07 20:55:47;;;;;;;;;0.33;0.33;;;;;24.31;41.12;101032.28;4939199;28;45301;-79
2024/04/07 20:58:12;;;;;;;;;1.33;1.00;;;;;24.16;41.42;101018.03;4939589;28;45407;-78
2024/04/07 21:00:37;;;;;;;;;2.00;1.67;;;;;24.22;41.17;101028.94;4939738;28;45358;-81
2024/04/07 21:03:03;;;;;;;;;0.33;0.33;;;;;24.28;41.23;101046.78;4939679;28;45210;-83
2024/04/07 21:05:28;;;;;;;;;0.00;0.00;;;;;24.28;41.22;101044.97;4940030;28;45480;-84
2024/04/07 21:07:54;;;;;;;;;3.00;1.33;;;;;23.91;41.55;100983.06;4939931;28;45437;-76
2024/04/07 21:10:19;;;;;;;;;0.00;0.00;;;;;24.13;41.17;101023.72;4939165;28;45997;-76
